createdAt,value
2019-02-25T00:00:41.762Z,13.60
2019-02-25T00:01:41.743Z,11.00
2019-02-25T00:02:41.740Z,12.00
2019-02-25T00:03:41.725Z,14.10
2019-02-25T00:04:41.715Z,15.10
2019-02-25T00:05:41.717Z,14.00
2019-02-25T00:06:41.697Z,12.70
2019-02-25T00:07:41.690Z,14.40
2019-02-25T00:08:41.688Z,12.60
2019-02-25T00:09:41.662Z,14.30
2019-02-25T00:10:41.678Z,12.20
2019-02-25T00:11:41.646Z,13.70
2019-02-25T00:12:41.637Z,12.70
2019-02-25T00:13:41.619Z,13.30
2019-02-25T00:14:41.609Z,14.00
2019-02-25T00:15:41.654Z,12.80
2019-02-25T00:16:41.591Z,13.00
2019-02-25T00:17:41.575Z,11.30
2019-02-25T00:18:41.564Z,12.90
2019-02-25T00:19:41.570Z,14.10
2019-02-25T00:20:41.601Z,12.90
2019-02-25T00:21:41.537Z,12.40
2019-02-25T00:22:41.526Z,12.40
2019-02-25T00:23:41.534Z,12.30
2019-02-25T00:24:41.525Z,11.60
2019-02-25T00:25:41.521Z,11.30
2019-02-25T00:26:41.482Z,11.50
2019-02-25T00:27:41.493Z,13.30
2019-02-25T00:28:41.503Z,12.00
2019-02-25T00:29:41.450Z,11.70
2019-02-25T00:30:41.440Z,13.60
2019-02-25T00:31:41.496Z,14.00
2019-02-25T00:32:41.426Z,10.60
2019-02-25T00:33:41.412Z,11.30
2019-02-25T00:34:41.405Z,12.20
2019-02-25T00:35:41.390Z,12.10
2019-02-25T00:36:42.092Z,11.50
2019-02-25T00:37:41.376Z,13.20
2019-02-25T00:38:41.365Z,12.60
2019-02-25T00:39:41.392Z,13.60
2019-02-25T00:40:41.348Z,12.20
2019-02-25T00:41:41.356Z,11.50
2019-02-25T00:42:41.319Z,11.90
2019-02-25T00:43:41.314Z,13.10
2019-02-25T00:44:41.353Z,12.10
2019-02-25T00:45:41.294Z,12.20
2019-02-25T00:46:41.298Z,11.10
2019-02-25T00:47:41.264Z,10.70
2019-02-25T00:48:41.256Z,11.40
2019-02-25T00:49:41.265Z,12.10
2019-02-25T00:50:41.233Z,10.60
2019-02-25T00:51:41.256Z,12.70
2019-02-25T00:52:41.239Z,12.70
2019-02-25T00:53:41.225Z,11.90
2019-02-25T00:54:41.194Z,12.30
2019-02-25T00:55:41.187Z,11.80
2019-02-25T00:56:41.187Z,12.00
2019-02-25T00:57:41.227Z,12.90
2019-02-25T00:58:41.151Z,13.10
2019-02-25T00:59:41.146Z,11.40
2019-02-25T01:00:41.129Z,11.20
2019-02-25T01:01:41.118Z,12.60
2019-02-25T01:02:41.136Z,11.60
2019-02-25T01:03:41.114Z,12.20
2019-02-25T01:04:41.091Z,13.10
2019-02-25T01:05:41.077Z,12.50
2019-02-25T01:06:41.072Z,12.50
2019-02-25T01:07:41.061Z,13.20
2019-02-25T01:08:41.070Z,12.60
2019-02-25T01:09:41.043Z,12.60
2019-02-25T01:10:41.031Z,13.00
2019-02-25T01:11:41.018Z,11.50
2019-02-25T01:12:41.029Z,12.30
2019-02-25T01:13:41.032Z,12.00
2019-02-25T01:14:40.986Z,10.70
2019-02-25T01:15:40.978Z,11.60
2019-02-25T01:16:40.967Z,15.30
2019-02-25T01:17:40.980Z,13.50
2019-02-25T01:18:40.948Z,10.90
2019-02-25T01:19:40.932Z,13.00
2019-02-25T01:20:40.922Z,12.30
2019-02-25T01:21:40.916Z,12.90
2019-02-25T01:22:40.947Z,12.90
2019-02-25T01:23:40.893Z,12.20
2019-02-25T01:24:40.882Z,14.90
2019-02-25T01:25:40.873Z,12.70
2019-02-25T01:26:40.860Z,10.90
2019-02-25T01:27:40.858Z,11.80
2019-02-25T01:28:40.856Z,13.80
2019-02-25T01:29:40.835Z,12.60
2019-02-25T01:30:40.821Z,13.00
2019-02-25T01:31:40.808Z,13.60
2019-02-25T01:32:40.813Z,15.80
2019-02-25T01:33:40.808Z,11.50
2019-02-25T01:34:40.779Z,13.80
2019-02-25T01:35:40.790Z,12.50
2019-02-25T01:36:40.757Z,12.70
2019-02-25T01:37:40.744Z,11.30
2019-02-25T01:38:40.764Z,14.00
2019-02-25T01:39:40.738Z,13.10
2019-02-25T01:40:40.713Z,9.60
2019-02-25T01:41:40.709Z,13.80
2019-02-25T01:42:40.694Z,12.00
2019-02-25T01:43:40.703Z,12.20
2019-02-25T01:44:40.677Z,13.80
2019-02-25T01:45:40.671Z,12.90
2019-02-25T01:46:40.651Z,11.90
2019-02-25T01:47:40.646Z,12.00
2019-02-25T01:48:40.636Z,11.90
2019-02-25T01:49:40.641Z,13.40
2019-02-25T01:50:40.613Z,11.50
2019-02-25T01:51:40.600Z,12.00
2019-02-25T01:52:40.594Z,11.70
2019-02-25T01:53:40.577Z,10.50
2019-02-25T01:54:40.617Z,10.30
2019-02-25T01:55:40.561Z,11.60
2019-02-25T01:56:40.563Z,12.00
2019-02-25T01:57:40.540Z,12.40
2019-02-25T01:58:40.527Z,13.00
2019-02-25T01:59:40.544Z,12.20
2019-02-25T02:00:40.510Z,14.60
2019-02-25T02:01:40.502Z,11.20
2019-02-25T02:02:40.504Z,11.30
2019-02-25T02:03:40.479Z,11.90
2019-02-25T02:04:40.465Z,13.40
2019-02-25T02:05:40.479Z,10.20
2019-02-25T02:06:40.447Z,10.50
2019-02-25T02:07:40.437Z,10.60
2019-02-25T02:08:40.426Z,10.10
2019-02-25T02:09:40.410Z,10.30
2019-02-25T02:10:40.438Z,13.30
2019-02-25T02:11:40.410Z,10.60
2019-02-25T02:12:40.382Z,12.40
2019-02-25T02:13:40.373Z,11.10
2019-02-25T02:14:40.361Z,11.00
2019-02-25T02:15:40.373Z,12.70
2019-02-25T02:16:40.366Z,11.90
2019-02-25T02:17:40.334Z,10.90
2019-02-25T02:18:40.323Z,12.30
2019-02-25T02:19:40.309Z,11.70
2019-02-25T02:20:40.322Z,12.30
2019-02-25T02:21:40.289Z,12.80
2019-02-25T02:22:40.278Z,10.90
2019-02-25T02:23:40.266Z,12.60
2019-02-25T02:24:40.258Z,11.40
2019-02-25T02:25:40.246Z,14.40
2019-02-25T02:26:40.261Z,12.40
2019-02-25T02:27:40.225Z,11.70
2019-02-25T02:28:40.215Z,13.80
2019-02-25T02:29:40.208Z,13.10
2019-02-25T02:30:40.204Z,13.90
2019-02-25T02:31:40.205Z,14.10
2019-02-25T02:32:40.173Z,16.00
2019-02-25T02:33:40.162Z,13.40
2019-02-25T02:34:40.157Z,13.40
2019-02-25T02:35:40.144Z,14.30
2019-02-25T02:36:40.158Z,14.00
2019-02-25T02:37:40.131Z,13.50
2019-02-25T02:38:40.115Z,14.10
2019-02-25T02:39:40.113Z,12.70
2019-02-25T02:40:40.107Z,13.10
2019-02-25T02:41:40.105Z,10.70
2019-02-25T02:42:40.091Z,12.50
2019-02-25T02:43:40.061Z,13.70
2019-02-25T02:44:40.051Z,13.80
2019-02-25T02:45:40.044Z,14.40
2019-02-25T02:46:40.030Z,14.90
2019-02-25T02:47:41.618Z,12.00
2019-02-25T02:48:40.007Z,11.40
2019-02-25T02:49:40.008Z,12.60
2019-02-25T02:50:39.989Z,11.70
2019-02-25T02:51:39.978Z,11.20
2019-02-25T02:52:39.986Z,11.00
2019-02-25T02:53:39.961Z,11.00
2019-02-25T02:54:39.948Z,10.30
2019-02-25T02:55:39.934Z,11.30
2019-02-25T02:56:39.924Z,11.30
2019-02-25T02:57:39.934Z,10.40
2019-02-25T02:58:39.917Z,12.90
2019-02-25T02:59:39.898Z,12.60
2019-02-25T03:00:39.881Z,12.00
2019-02-25T03:01:39.872Z,12.20
2019-02-25T03:02:39.882Z,10.80
2019-02-25T03:03:39.859Z,12.80
2019-02-25T03:04:39.853Z,11.10
2019-02-25T03:05:39.850Z,11.40
2019-02-25T03:06:39.841Z,12.70
2019-02-25T03:07:39.814Z,11.60
2019-02-25T03:08:39.835Z,10.90
2019-02-25T03:09:39.792Z,11.20
2019-02-25T03:10:39.777Z,10.90
2019-02-25T03:11:39.765Z,11.30
2019-02-25T03:12:39.757Z,10.90
2019-02-25T03:13:39.764Z,11.40
2019-02-25T03:14:39.736Z,11.40
2019-02-25T03:15:39.752Z,8.30
2019-02-25T03:16:39.715Z,11.60
2019-02-25T03:17:39.706Z,9.40
2019-02-25T03:18:39.710Z,10.60
2019-02-25T03:19:39.696Z,11.00
2019-02-25T03:20:39.679Z,8.80
2019-02-25T03:21:39.665Z,10.80
2019-02-25T03:22:39.652Z,10.00
2019-02-25T03:23:39.667Z,11.00
2019-02-25T03:24:39.629Z,10.80
2019-02-25T03:25:39.620Z,9.40
2019-02-25T03:26:39.607Z,10.20
2019-02-25T03:27:39.602Z,11.70
2019-02-25T03:28:39.608Z,8.70
2019-02-25T03:29:39.575Z,10.00
2019-02-25T03:30:39.566Z,9.40
2019-02-25T03:31:39.557Z,9.50
2019-02-25T03:32:39.712Z,8.20
2019-02-25T03:33:39.538Z,10.50
2019-02-25T03:34:39.548Z,10.20
2019-02-25T03:35:39.514Z,11.00
2019-02-25T03:36:39.509Z,9.90
2019-02-25T03:37:39.500Z,11.70
2019-02-25T03:38:39.483Z,10.80
2019-02-25T03:39:39.503Z,11.60
2019-02-25T03:40:39.465Z,12.10
2019-02-25T03:41:39.457Z,7.70
2019-02-25T03:42:39.444Z,9.80
2019-02-25T03:43:39.432Z,9.60
2019-02-25T03:44:39.441Z,10.60
2019-02-25T03:45:39.412Z,11.70
2019-02-25T03:46:39.409Z,15.40
2019-02-25T03:47:39.394Z,13.90
2019-02-25T03:48:39.388Z,11.00
2019-02-25T03:49:39.386Z,12.30
2019-02-25T03:50:39.361Z,11.20
2019-02-25T03:51:39.356Z,9.50
2019-02-25T03:52:39.338Z,12.90
2019-02-25T03:53:39.328Z,11.90
2019-02-25T03:54:39.335Z,10.70
2019-02-25T03:55:39.307Z,11.90
2019-02-25T03:56:39.298Z,12.50
2019-02-25T03:57:39.287Z,10.40
2019-02-25T03:58:39.278Z,13.90
2019-02-25T03:59:39.293Z,12.50
2019-02-25T04:00:39.255Z,10.10
2019-02-25T04:01:39.246Z,12.10
2019-02-25T04:02:39.237Z,11.40
2019-02-25T04:03:39.225Z,12.00
2019-02-25T04:04:39.236Z,12.30
2019-02-25T04:05:39.205Z,10.50
2019-02-25T04:06:39.196Z,12.40
2019-02-25T04:07:39.189Z,10.10
2019-02-25T04:08:39.174Z,12.80
2019-02-25T04:09:39.206Z,9.50
2019-02-25T04:10:39.165Z,10.80
2019-02-25T04:11:39.157Z,10.70
2019-02-25T04:12:39.139Z,11.50
2019-02-25T04:13:39.129Z,11.20
2019-02-25T04:14:39.122Z,10.50
2019-02-25T04:15:39.124Z,10.80
2019-02-25T04:16:39.095Z,10.10
2019-02-25T04:17:39.084Z,12.40
2019-02-25T04:18:39.084Z,11.60
2019-02-25T04:19:39.062Z,10.50
2019-02-25T04:20:39.074Z,10.40
2019-02-25T04:21:39.044Z,11.40
2019-02-25T04:22:39.034Z,10.80
2019-02-25T04:23:39.049Z,12.40
2019-02-25T04:24:39.009Z,12.00
2019-02-25T04:25:39.020Z,10.20
2019-02-25T04:26:38.986Z,15.30
2019-02-25T04:27:38.977Z,10.40
2019-02-25T04:28:38.966Z,10.30
2019-02-25T04:29:38.958Z,12.00
2019-02-25T04:30:39.005Z,11.10
2019-02-25T04:31:38.936Z,10.70
2019-02-25T04:32:38.924Z,12.50
2019-02-25T04:33:38.915Z,14.00
2019-02-25T04:34:38.906Z,11.40
2019-02-25T04:35:38.895Z,10.20
2019-02-25T04:36:38.905Z,10.90
2019-02-25T04:37:38.877Z,11.10
2019-02-25T04:38:38.865Z,15.40
2019-02-25T04:39:38.854Z,12.30
2019-02-25T04:40:38.842Z,12.10
2019-02-25T04:41:38.850Z,11.40
2019-02-25T04:42:38.825Z,13.20
2019-02-25T04:43:38.811Z,10.20
2019-02-25T04:44:38.806Z,12.00
2019-02-25T04:45:38.791Z,11.20
2019-02-25T04:46:38.800Z,11.30
2019-02-25T04:47:38.771Z,10.80
2019-02-25T04:48:38.765Z,12.00
2019-02-25T04:49:38.752Z,11.50
2019-02-25T04:50:38.742Z,11.00
2019-02-25T04:51:38.748Z,12.80
2019-02-25T04:52:38.720Z,10.90
2019-02-25T04:53:38.714Z,10.00
2019-02-25T04:54:38.708Z,9.50
2019-02-25T04:55:38.689Z,10.00
2019-02-25T04:56:38.702Z,11.10
2019-02-25T04:57:38.671Z,11.00
2019-02-25T04:58:38.660Z,11.80
2019-02-25T04:59:38.652Z,11.40
2019-02-25T05:00:38.640Z,10.90
2019-02-25T05:01:38.631Z,13.10
2019-02-25T05:02:38.635Z,13.60
2019-02-25T05:03:38.606Z,11.40
2019-02-25T05:04:38.595Z,13.60
2019-02-25T05:05:38.598Z,11.50
2019-02-25T05:06:38.576Z,11.10
2019-02-25T05:07:38.583Z,12.00
2019-02-25T05:08:38.558Z,13.10
2019-02-25T05:09:38.544Z,14.40
2019-02-25T05:10:38.534Z,13.60
2019-02-25T05:11:38.522Z,19.80
2019-02-25T05:12:38.534Z,14.10
2019-02-25T05:13:38.505Z,12.60
2019-02-25T05:14:38.491Z,13.10
2019-02-25T05:15:38.535Z,14.40
2019-02-25T05:16:40.079Z,12.30
2019-02-25T05:17:39.154Z,15.00
2019-02-25T05:18:38.450Z,12.20
2019-02-25T05:19:38.440Z,13.00
2019-02-25T05:20:38.430Z,16.00
2019-02-25T05:21:38.425Z,11.00
2019-02-25T05:22:38.413Z,13.50
2019-02-25T05:23:38.422Z,12.50
2019-02-25T05:24:38.390Z,15.70
2019-02-25T05:25:38.378Z,12.70
2019-02-25T05:26:38.368Z,15.40
2019-02-25T05:27:38.366Z,14.30
2019-02-25T05:28:38.368Z,12.80
2019-02-25T05:29:38.339Z,12.10
2019-02-25T05:30:38.329Z,12.20
2019-02-25T05:31:38.319Z,15.00
2019-02-25T05:32:38.310Z,12.50
2019-02-25T05:33:38.322Z,15.40
2019-02-25T05:34:38.287Z,12.00
2019-02-25T05:35:38.278Z,13.30
2019-02-25T05:36:38.269Z,14.00
2019-02-25T05:37:38.256Z,10.50
2019-02-25T05:38:38.272Z,12.70
2019-02-25T05:39:38.237Z,15.90
2019-02-25T05:40:38.232Z,13.70
2019-02-25T05:41:38.257Z,13.60
2019-02-25T05:42:38.214Z,13.80
2019-02-25T05:43:38.195Z,12.10
2019-02-25T05:44:38.221Z,15.40
2019-02-25T05:45:38.191Z,14.10
2019-02-25T05:46:38.172Z,13.70
2019-02-25T05:47:38.158Z,14.50
2019-02-25T05:48:38.143Z,15.20
2019-02-25T05:49:38.156Z,12.80
2019-02-25T05:50:38.124Z,15.00
2019-02-25T05:51:38.113Z,14.90
2019-02-25T05:52:38.109Z,11.50
2019-02-25T05:53:38.107Z,12.00
2019-02-25T05:54:38.101Z,12.30
2019-02-25T05:55:38.078Z,13.10
2019-02-25T05:56:38.066Z,11.50
2019-02-25T05:57:38.063Z,15.00
2019-02-25T05:58:38.048Z,13.60
2019-02-25T05:59:38.052Z,11.80
2019-02-25T06:00:38.024Z,11.30
2019-02-25T06:01:38.023Z,12.10
2019-02-25T06:02:38.009Z,13.40
2019-02-25T06:03:38.047Z,13.60
2019-02-25T06:04:38.035Z,12.30
2019-02-25T06:05:39.992Z,11.40
2019-02-25T06:06:37.979Z,12.10
2019-02-25T06:07:37.968Z,13.60
2019-02-25T06:08:37.944Z,12.20
2019-02-25T06:09:37.942Z,12.80
2019-02-25T06:10:37.936Z,16.10
2019-02-25T06:11:37.908Z,11.70
2019-02-25T06:12:37.894Z,13.40
2019-02-25T06:13:37.884Z,13.10
2019-02-25T06:14:37.873Z,11.10
2019-02-25T06:15:37.888Z,11.60
2019-02-25T06:16:37.851Z,16.90
2019-02-25T06:17:37.841Z,10.50
2019-02-25T06:18:37.836Z,14.40
2019-02-25T06:19:37.824Z,11.60
2019-02-25T06:20:37.834Z,13.30
2019-02-25T06:21:37.809Z,11.80
2019-02-25T06:22:37.791Z,11.00
2019-02-25T06:23:37.780Z,12.20
2019-02-25T06:24:37.775Z,12.80
2019-02-25T06:25:37.781Z,11.60
2019-02-25T06:26:38.683Z,12.30
2019-02-25T06:27:37.744Z,12.70
2019-02-25T06:28:37.733Z,15.40
2019-02-25T06:29:37.725Z,16.20
2019-02-25T06:30:37.745Z,12.80
2019-02-25T06:31:37.701Z,13.30
2019-02-25T06:32:37.688Z,12.20
2019-02-25T06:33:37.679Z,12.80
2019-02-25T06:34:37.667Z,11.60
2019-02-25T06:35:37.659Z,12.00
2019-02-25T06:36:37.665Z,11.70
2019-02-25T06:37:37.639Z,14.10
2019-02-25T06:38:37.627Z,17.40
2019-02-25T06:39:37.632Z,11.00
2019-02-25T06:40:37.606Z,11.10
2019-02-25T06:41:37.612Z,13.10
2019-02-25T06:42:37.591Z,11.60
2019-02-25T06:43:37.571Z,11.70
2019-02-25T06:44:37.566Z,12.80
2019-02-25T06:45:37.551Z,12.50
2019-02-25T06:46:37.558Z,12.80
2019-02-25T06:47:37.530Z,16.00
2019-02-25T06:48:37.525Z,12.20
2019-02-25T06:49:37.507Z,14.80
2019-02-25T06:50:37.498Z,13.60
2019-02-25T06:51:37.507Z,13.90
2019-02-25T06:52:37.477Z,14.40
2019-02-25T06:53:37.473Z,15.70
2019-02-25T06:54:37.456Z,14.10
2019-02-25T06:55:37.446Z,11.30
2019-02-25T06:56:37.454Z,18.00
2019-02-25T06:57:37.423Z,16.40
2019-02-25T06:58:37.413Z,15.20
2019-02-25T06:59:37.407Z,14.20
2019-02-25T07:00:37.393Z,13.60
2019-02-25T07:01:37.407Z,12.90
2019-02-25T07:02:37.375Z,14.30
2019-02-25T07:03:37.363Z,14.20
2019-02-25T07:04:37.356Z,14.60
2019-02-25T07:05:37.343Z,14.70
2019-02-25T07:06:37.329Z,13.80
2019-02-25T07:07:37.337Z,15.80
2019-02-25T07:08:37.311Z,14.80
2019-02-25T07:09:38.914Z,12.40
2019-02-25T07:10:37.287Z,11.70
2019-02-25T07:11:37.278Z,15.90
2019-02-25T07:12:37.289Z,13.80
2019-02-25T07:13:37.262Z,14.70
2019-02-25T07:14:37.245Z,13.90
2019-02-25T07:15:37.239Z,14.50
2019-02-25T07:16:37.229Z,13.30
2019-02-25T07:17:37.256Z,12.30
2019-02-25T07:18:37.206Z,14.80
2019-02-25T07:19:37.192Z,14.10
2019-02-25T07:20:37.181Z,13.00
2019-02-25T07:21:37.174Z,15.50
2019-02-25T07:22:37.169Z,13.60
2019-02-25T07:23:37.766Z,12.20
2019-02-25T07:24:37.140Z,15.00
2019-02-25T07:25:37.130Z,20.00
2019-02-25T07:26:37.123Z,14.90
2019-02-25T07:27:37.110Z,15.10
2019-02-25T07:28:37.119Z,16.90
2019-02-25T07:29:37.089Z,13.30
2019-02-25T07:30:37.079Z,13.40
2019-02-25T07:31:37.068Z,19.00
2019-02-25T07:32:37.077Z,14.00
2019-02-25T07:33:37.069Z,16.10
2019-02-25T07:34:37.037Z,17.20
2019-02-25T07:35:37.028Z,15.00
2019-02-25T07:36:37.017Z,15.90
2019-02-25T07:37:37.008Z,14.90
2019-02-25T07:38:39.380Z,16.20
2019-02-25T07:39:36.985Z,15.00
2019-02-25T07:40:36.975Z,14.40
2019-02-25T07:41:38.230Z,13.70
2019-02-25T07:42:36.954Z,12.10
2019-02-25T07:43:36.963Z,11.50
2019-02-25T07:44:36.935Z,13.80
2019-02-25T07:45:36.923Z,13.50
2019-02-25T07:46:36.913Z,15.70
2019-02-25T07:47:36.904Z,11.80
2019-02-25T07:48:36.919Z,10.60
2019-02-25T07:49:36.884Z,15.10
2019-02-25T07:50:36.879Z,13.90
2019-02-25T07:51:36.863Z,12.50
2019-02-25T07:52:36.853Z,15.20
2019-02-25T07:53:36.844Z,11.30
2019-02-25T07:54:36.852Z,11.50
2019-02-25T07:55:36.822Z,15.50
2019-02-25T07:56:36.811Z,13.60
2019-02-25T07:57:36.822Z,16.80
2019-02-25T07:58:36.792Z,14.70
2019-02-25T07:59:36.804Z,11.00
2019-02-25T08:00:36.770Z,14.40
2019-02-25T08:01:36.760Z,15.10
2019-02-25T08:02:36.751Z,13.50
2019-02-25T08:03:36.740Z,12.90
2019-02-25T08:04:36.752Z,15.90
2019-02-25T08:05:36.719Z,13.00
2019-02-25T08:06:36.711Z,13.70
2019-02-25T08:07:36.701Z,16.30
2019-02-25T08:08:36.688Z,17.80
2019-02-25T08:09:37.193Z,13.20
2019-02-25T08:10:36.668Z,12.30
2019-02-25T08:11:36.658Z,12.10
2019-02-25T08:12:36.646Z,12.60
2019-02-25T08:13:36.637Z,13.70
2019-02-25T08:14:36.655Z,11.50
2019-02-25T08:15:36.617Z,15.40
2019-02-25T08:16:36.606Z,15.50
2019-02-25T08:17:36.594Z,13.60
2019-02-25T08:18:36.585Z,15.00
2019-02-25T08:19:36.574Z,13.80
2019-02-25T08:20:36.583Z,16.00
2019-02-25T08:21:36.553Z,12.50
2019-02-25T08:22:36.546Z,16.60
2019-02-25T08:23:36.537Z,13.90
2019-02-25T08:24:36.545Z,11.40
2019-02-25T08:25:36.531Z,16.70
2019-02-25T08:26:36.503Z,14.70
2019-02-25T08:27:36.495Z,12.70
2019-02-25T08:28:36.511Z,17.30
2019-02-25T08:29:36.471Z,14.00
2019-02-25T08:30:36.488Z,15.30
2019-02-25T08:31:36.450Z,11.60
2019-02-25T08:32:36.446Z,14.00
2019-02-25T08:33:36.434Z,14.00
2019-02-25T08:34:36.420Z,11.50
2019-02-25T08:35:36.428Z,11.10
2019-02-25T08:36:37.596Z,13.50
2019-02-25T08:37:36.387Z,11.30
2019-02-25T08:38:36.377Z,11.70
2019-02-25T08:39:36.368Z,12.30
2019-02-25T08:40:36.391Z,14.70
2019-02-25T08:41:36.352Z,13.30
2019-02-25T08:42:36.343Z,12.90
2019-02-25T08:43:36.330Z,15.40
2019-02-25T08:44:36.315Z,14.90
2019-02-25T08:45:36.310Z,12.80
2019-02-25T08:46:36.313Z,23.40
2019-02-25T08:47:36.282Z,11.50
2019-02-25T08:48:36.274Z,17.60
2019-02-25T08:49:36.263Z,11.60
2019-02-25T08:50:36.256Z,11.00
2019-02-25T08:51:36.262Z,10.90
2019-02-25T08:52:36.233Z,12.40
2019-02-25T08:53:36.225Z,10.50
2019-02-25T08:54:36.216Z,17.90
2019-02-25T08:55:36.225Z,12.80
2019-02-25T08:56:36.211Z,13.90
2019-02-25T08:57:36.182Z,12.90
2019-02-25T08:58:36.168Z,13.60
2019-02-25T08:59:36.168Z,13.60
2019-02-25T09:00:36.149Z,11.90
2019-02-25T09:01:36.156Z,14.60
2019-02-25T09:02:36.133Z,14.00
2019-02-25T09:03:36.117Z,9.10
2019-02-25T09:04:36.108Z,10.80
2019-02-25T09:05:36.096Z,12.30
2019-02-25T09:06:36.101Z,9.80
2019-02-25T09:07:36.075Z,11.40
2019-02-25T09:08:36.060Z,13.20
2019-02-25T09:09:36.048Z,10.30
2019-02-25T09:10:36.039Z,11.30
2019-02-25T09:11:36.061Z,9.70
2019-02-25T09:12:36.017Z,11.10
2019-02-25T09:13:36.004Z,10.90
2019-02-25T09:14:35.994Z,12.80
2019-02-25T09:15:35.985Z,10.80
2019-02-25T09:16:35.973Z,9.50
2019-02-25T09:17:35.991Z,8.90
2019-02-25T09:18:35.969Z,9.00
2019-02-25T09:19:35.947Z,9.00
2019-02-25T09:20:35.938Z,9.40
2019-02-25T09:21:35.932Z,10.40
2019-02-25T09:22:35.931Z,8.10
2019-02-25T09:23:35.897Z,9.90
2019-02-25T09:24:35.901Z,9.00
2019-02-25T09:25:35.880Z,8.80
2019-02-25T09:26:35.861Z,8.10
2019-02-25T09:27:35.879Z,9.00
2019-02-25T09:28:35.847Z,9.80
2019-02-25T09:29:35.831Z,8.40
2019-02-25T09:30:35.823Z,8.60
2019-02-25T09:31:35.825Z,8.90
2019-02-25T09:32:35.827Z,11.30
2019-02-25T09:33:35.789Z,9.10
2019-02-25T09:34:35.781Z,9.80
2019-02-25T09:35:35.764Z,10.40
2019-02-25T09:36:35.756Z,12.70
2019-02-25T09:37:37.275Z,10.90
2019-02-25T09:38:35.731Z,10.00
2019-02-25T09:39:35.724Z,8.10
2019-02-25T09:40:35.712Z,9.30
2019-02-25T09:41:35.706Z,12.20
2019-02-25T09:42:35.710Z,8.70
2019-02-25T09:43:35.675Z,9.30
2019-02-25T09:44:37.839Z,8.80
2019-02-25T09:45:35.651Z,8.50
2019-02-25T09:46:35.643Z,9.90
2019-02-25T09:47:35.635Z,9.60
2019-02-25T09:48:35.639Z,7.40
2019-02-25T09:49:35.608Z,10.00
2019-02-25T09:50:35.599Z,9.30
2019-02-25T09:51:35.594Z,11.00
2019-02-25T09:52:35.575Z,7.60
2019-02-25T09:53:35.582Z,7.80
2019-02-25T09:54:35.554Z,7.40
2019-02-25T09:55:35.545Z,8.20
2019-02-25T09:56:37.338Z,5.90
2019-02-25T09:57:35.529Z,7.90
2019-02-25T09:58:35.531Z,7.60
2019-02-25T09:59:35.508Z,11.80
2019-02-25T10:00:35.489Z,7.30
2019-02-25T10:01:35.480Z,8.30
2019-02-25T10:02:35.474Z,6.70
2019-02-25T10:03:35.481Z,9.90
2019-02-25T10:04:35.448Z,8.90
2019-02-25T10:05:35.437Z,8.80
2019-02-25T10:06:35.436Z,8.20
2019-02-25T10:07:35.420Z,7.10
2019-02-25T10:08:35.426Z,8.50
2019-02-25T10:09:35.400Z,7.40
2019-02-25T10:10:35.386Z,8.60
2019-02-25T10:11:35.400Z,11.10
2019-02-25T10:12:35.362Z,8.00
2019-02-25T10:13:35.355Z,6.50
2019-02-25T10:14:35.365Z,6.90
2019-02-25T10:15:35.330Z,7.50
2019-02-25T10:16:35.318Z,8.40
2019-02-25T10:17:35.308Z,7.80
2019-02-25T10:18:35.297Z,8.90
2019-02-25T10:19:35.305Z,6.70
2019-02-25T10:20:35.279Z,8.10
2019-02-25T10:21:35.267Z,6.90
2019-02-25T10:22:35.254Z,7.40
2019-02-25T10:23:35.248Z,8.40
2019-02-25T10:24:35.252Z,7.90
2019-02-25T10:25:35.239Z,6.00
2019-02-25T10:26:35.258Z,6.50
2019-02-25T10:27:35.208Z,7.10
2019-02-25T10:28:35.198Z,5.50
2019-02-25T10:29:35.209Z,6.50
2019-02-25T10:30:35.175Z,6.80
2019-02-25T10:31:35.164Z,6.50
2019-02-25T10:32:35.165Z,6.50
2019-02-25T10:33:35.138Z,8.00
2019-02-25T10:34:35.165Z,5.00
2019-02-25T10:35:35.124Z,7.80
2019-02-25T10:36:35.109Z,7.60
2019-02-25T10:37:36.311Z,6.70
2019-02-25T10:38:35.085Z,6.80
2019-02-25T10:39:35.094Z,7.80
2019-02-25T10:40:35.066Z,5.80
2019-02-25T10:41:35.055Z,6.90
2019-02-25T10:42:36.087Z,6.60
2019-02-25T10:43:36.571Z,6.60
2019-02-25T10:44:36.142Z,8.90
2019-02-25T10:45:36.759Z,7.50
2019-02-25T10:46:34.999Z,7.70
2019-02-25T10:47:34.994Z,5.60
2019-02-25T10:48:34.990Z,7.80
2019-02-25T10:49:34.967Z,6.20
2019-02-25T10:50:35.990Z,6.60
2019-02-25T10:51:36.786Z,6.50
2019-02-25T10:52:34.935Z,6.10
2019-02-25T10:53:34.921Z,6.40
2019-02-25T10:54:34.911Z,5.20
2019-02-25T10:55:34.917Z,10.30
2019-02-25T10:56:34.908Z,6.30
2019-02-25T10:57:34.889Z,8.40
2019-02-25T10:58:36.035Z,5.90
2019-02-25T10:59:36.767Z,5.70
2019-02-25T11:00:35.741Z,6.00
2019-02-25T11:01:34.856Z,6.90
2019-02-25T11:02:43.872Z,6.00
2019-02-25T11:03:35.814Z,6.50
2019-02-25T11:04:34.814Z,7.60
2019-02-25T11:05:34.793Z,6.00
2019-02-25T11:06:35.977Z,9.20
2019-02-25T11:07:36.939Z,5.40
2019-02-25T11:08:35.283Z,6.90
2019-02-25T11:09:34.751Z,5.40
2019-02-25T11:10:34.740Z,5.90
2019-02-25T11:11:34.754Z,6.90
2019-02-25T11:12:34.728Z,6.00
2019-02-25T11:13:36.730Z,8.30
2019-02-25T11:14:35.952Z,5.90
2019-02-25T11:15:34.704Z,5.60
2019-02-25T11:16:34.698Z,5.80
2019-02-25T11:17:34.665Z,9.30
2019-02-25T11:18:34.672Z,5.40
2019-02-25T11:19:34.673Z,8.40
2019-02-25T11:20:36.001Z,8.50
2019-02-25T11:21:35.278Z,7.50
2019-02-25T11:22:34.617Z,5.40
2019-02-25T11:23:34.604Z,5.00
2019-02-25T11:24:34.593Z,4.90
2019-02-25T11:25:34.590Z,7.20
2019-02-25T11:26:35.389Z,9.70
2019-02-25T11:27:35.848Z,6.50
2019-02-25T11:28:36.651Z,6.40
2019-02-25T11:29:34.545Z,4.90
2019-02-25T11:30:34.523Z,5.80
2019-02-25T11:31:34.537Z,7.00
2019-02-25T11:32:34.508Z,12.10
2019-02-25T11:33:34.504Z,5.80
2019-02-25T11:34:35.733Z,5.30
2019-02-25T11:35:36.509Z,3.90
2019-02-25T11:36:34.458Z,4.20
2019-02-25T11:37:34.464Z,7.00
2019-02-25T11:38:37.287Z,5.70
2019-02-25T11:39:35.508Z,6.70
2019-02-25T11:40:36.550Z,8.10
2019-02-25T11:41:36.551Z,5.80
2019-02-25T11:42:34.424Z,6.90
2019-02-25T11:43:34.389Z,7.00
2019-02-25T11:44:34.372Z,7.70
2019-02-25T11:45:36.216Z,5.60
2019-02-25T11:46:34.351Z,5.30
2019-02-25T11:47:34.391Z,9.00
2019-02-25T11:48:34.327Z,5.90
2019-02-25T11:49:34.316Z,5.80
2019-02-25T11:50:34.333Z,6.30
2019-02-25T11:51:34.293Z,5.50
2019-02-25T11:52:34.281Z,5.10
2019-02-25T11:53:34.305Z,4.00
2019-02-25T11:54:34.261Z,7.80
2019-02-25T11:55:34.252Z,4.50
2019-02-25T11:56:34.241Z,5.90
2019-02-25T11:57:34.236Z,5.30
2019-02-25T11:58:34.239Z,5.70
2019-02-25T11:59:34.209Z,5.30
2019-02-25T12:00:34.202Z,4.40
2019-02-25T12:01:34.225Z,6.30
2019-02-25T12:02:34.179Z,4.30
2019-02-25T12:03:34.186Z,3.80
2019-02-25T12:04:34.158Z,5.70
2019-02-25T12:05:34.144Z,4.10
2019-02-25T12:06:34.132Z,4.60
2019-02-25T12:07:34.124Z,4.00
2019-02-25T12:08:34.157Z,5.60
2019-02-25T12:09:34.101Z,4.70
2019-02-25T12:10:34.093Z,8.30
2019-02-25T12:11:34.082Z,5.00
2019-02-25T12:12:34.081Z,4.10
2019-02-25T12:13:34.078Z,7.50
2019-02-25T12:14:34.045Z,6.10
2019-02-25T12:15:34.038Z,7.40
2019-02-25T12:16:34.026Z,4.50
2019-02-25T12:17:34.015Z,3.00
2019-02-25T12:18:34.042Z,5.00
2019-02-25T12:19:33.996Z,6.40
2019-02-25T12:20:33.984Z,5.80
2019-02-25T12:21:33.974Z,4.20
2019-02-25T12:22:33.967Z,7.40
2019-02-25T12:23:33.948Z,6.10
2019-02-25T12:24:33.971Z,4.20
2019-02-25T12:25:33.938Z,4.70
2019-02-25T12:26:33.917Z,7.50
2019-02-25T12:27:33.914Z,7.40
2019-02-25T12:28:33.895Z,5.90
2019-02-25T12:29:33.928Z,6.10
2019-02-25T12:30:33.875Z,3.70
2019-02-25T12:31:33.862Z,4.50
2019-02-25T12:32:33.856Z,6.90
2019-02-25T12:33:33.843Z,3.80
2019-02-25T12:34:33.849Z,3.80
2019-02-25T12:35:33.823Z,5.10
2019-02-25T12:36:33.808Z,5.80
2019-02-25T12:37:33.797Z,5.80
2019-02-25T12:38:33.799Z,6.00
2019-02-25T12:39:33.807Z,4.00
2019-02-25T12:40:33.766Z,6.00
2019-02-25T12:41:33.754Z,5.90
2019-02-25T12:42:33.745Z,5.30
2019-02-25T12:43:33.733Z,3.90
2019-02-25T12:44:33.741Z,5.70
2019-02-25T12:45:33.712Z,5.60
2019-02-25T12:46:33.702Z,3.60
2019-02-25T12:47:33.690Z,6.10
2019-02-25T12:48:33.689Z,6.10
2019-02-25T12:49:33.689Z,5.20
2019-02-25T12:50:33.657Z,6.20
2019-02-25T12:51:33.649Z,3.10
2019-02-25T12:52:33.645Z,3.40
2019-02-25T12:53:33.624Z,6.30
2019-02-25T12:54:33.614Z,3.70
2019-02-25T12:55:33.623Z,4.90
2019-02-25T12:56:33.602Z,5.40
2019-02-25T12:57:33.582Z,4.90
2019-02-25T12:58:33.569Z,5.60
2019-02-25T12:59:33.579Z,4.60
2019-02-25T13:00:33.552Z,3.10